sensor_id;sensor_type;location;lat;lon;timestamp;P1;durP1;ratioP1;P2;durP2;ratioP2
78818;SDS011;68166;55.090;37.460;2024-03-02T00:02:33;9.38;;;6.20;;
78818;SDS011;68166;55.090;37.460;2024-03-02T00:07:42;23.70;;;7.53;;
78818;SDS011;68166;55.090;37.460;2024-03-02T00:12:46;11.68;;;5.55;;
78818;SDS011;68166;55.090;37.460;2024-03-02T00:17:55;18.88;;;6.78;;
78818;SDS011;68166;55.090;37.460;2024-03-02T00:23:01;7.57;;;5.25;;
78818;SDS011;68166;55.090;37.460;2024-03-02T00:28:21;7.32;;;5.05;;
78818;SDS011;68166;55.090;37.460;2024-03-02T00:33:30;7.40;;;4.60;;
78818;SDS011;68166;55.090;37.460;2024-03-02T00:38:53;7.10;;;3.63;;
78818;SDS011;68166;55.090;37.460;2024-03-02T00:44:02;10.88;;;4.90;;
78818;SDS011;68166;55.090;37.460;2024-03-02T00:54:25;13.13;;;5.03;;
78818;SDS011;68166;55.090;37.460;2024-03-02T00:59:27;11.82;;;6.97;;
78818;SDS011;68166;55.090;37.460;2024-03-02T01:04:30;16.35;;;5.72;;
78818;SDS011;68166;55.090;37.460;2024-03-02T01:09:32;11.80;;;6.32;;
78818;SDS011;68166;55.090;37.460;2024-03-02T01:14:34;11.43;;;4.85;;
78818;SDS011;68166;55.090;37.460;2024-03-02T01:19:36;11.27;;;5.20;;
78818;SDS011;68166;55.090;37.460;2024-03-02T01:24:39;8.63;;;3.67;;
78818;SDS011;68166;55.090;37.460;2024-03-02T01:34:43;6.78;;;4.43;;
78818;SDS011;68166;55.090;37.460;2024-03-02T01:39:45;7.10;;;4.50;;
78818;SDS011;68166;55.090;37.460;2024-03-02T01:44:47;10.07;;;4.10;;
78818;SDS011;68166;55.090;37.460;2024-03-02T01:49:49;4.43;;;2.70;;
78818;SDS011;68166;55.090;37.460;2024-03-02T01:54:51;9.48;;;5.88;;
78818;SDS011;68166;55.090;37.460;2024-03-02T01:59:53;17.05;;;4.82;;
78818;SDS011;68166;55.090;37.460;2024-03-02T02:04:55;10.98;;;5.75;;
78818;SDS011;68166;55.090;37.460;2024-03-02T02:09:57;10.80;;;5.00;;
78818;SDS011;68166;55.090;37.460;2024-03-02T02:14:59;5.80;;;4.07;;
78818;SDS011;68166;55.090;37.460;2024-03-02T02:20:01;5.53;;;4.45;;
78818;SDS011;68166;55.090;37.460;2024-03-02T02:25:06;9.27;;;4.30;;
78818;SDS011;68166;55.090;37.460;2024-03-02T02:30:08;9.93;;;4.47;;
78818;SDS011;68166;55.090;37.460;2024-03-02T02:35:10;7.68;;;4.40;;
78818;SDS011;68166;55.090;37.460;2024-03-02T02:40:13;4.75;;;3.42;;
78818;SDS011;68166;55.090;37.460;2024-03-02T02:45:16;11.48;;;4.97;;
78818;SDS011;68166;55.090;37.460;2024-03-02T02:50:21;8.30;;;4.47;;
78818;SDS011;68166;55.090;37.460;2024-03-02T02:55:22;10.82;;;5.45;;
78818;SDS011;68166;55.090;37.460;2024-03-02T03:00:24;9.65;;;6.18;;
78818;SDS011;68166;55.090;37.460;2024-03-02T03:05:26;7.57;;;3.08;;
78818;SDS011;68166;55.090;37.460;2024-03-02T03:10:28;6.40;;;4.18;;
78818;SDS011;68166;55.090;37.460;2024-03-02T03:15:30;9.13;;;4.85;;
78818;SDS011;68166;55.090;37.460;2024-03-02T03:20:32;9.70;;;4.70;;
78818;SDS011;68166;55.090;37.460;2024-03-02T03:25:34;7.30;;;2.72;;
78818;SDS011;68166;55.090;37.460;2024-03-02T03:30:36;5.13;;;2.88;;
78818;SDS011;68166;55.090;37.460;2024-03-02T03:35:41;7.55;;;3.75;;
78818;SDS011;68166;55.090;37.460;2024-03-02T03:40:43;8.10;;;5.05;;
78818;SDS011;68166;55.090;37.460;2024-03-02T03:45:45;5.95;;;3.97;;
78818;SDS011;68166;55.090;37.460;2024-03-02T03:50:47;11.55;;;4.82;;
78818;SDS011;68166;55.090;37.460;2024-03-02T03:55:49;5.15;;;4.05;;
78818;SDS011;68166;55.090;37.460;2024-03-02T04:00:51;5.38;;;2.55;;
78818;SDS011;68166;55.090;37.460;2024-03-02T04:05:53;13.20;;;4.82;;
78818;SDS011;68166;55.090;37.460;2024-03-02T04:10:55;12.68;;;3.38;;
78818;SDS011;68166;55.090;37.460;2024-03-02T04:15:57;9.35;;;4.05;;
78818;SDS011;68166;55.090;37.460;2024-03-02T04:20:59;5.15;;;3.50;;
78818;SDS011;68166;55.090;37.460;2024-03-02T04:26:01;7.72;;;5.10;;
78818;SDS011;68166;55.090;37.460;2024-03-02T04:31:03;5.22;;;4.68;;
78818;SDS011;68166;55.090;37.460;2024-03-02T04:36:05;6.70;;;3.08;;
78818;SDS011;68166;55.090;37.460;2024-03-02T04:41:10;8.65;;;2.67;;
78818;SDS011;68166;55.090;37.460;2024-03-02T04:46:12;6.15;;;2.97;;
78818;SDS011;68166;55.090;37.460;2024-03-02T04:51:14;4.35;;;3.80;;
78818;SDS011;68166;55.090;37.460;2024-03-02T04:56:16;4.45;;;2.90;;
78818;SDS011;68166;55.090;37.460;2024-03-02T05:01:33;6.57;;;2.90;;
78818;SDS011;68166;55.090;37.460;2024-03-02T05:06:35;10.00;;;5.10;;
78818;SDS011;68166;55.090;37.460;2024-03-02T05:11:37;5.78;;;2.58;;
78818;SDS011;68166;55.090;37.460;2024-03-02T05:16:39;3.60;;;2.85;;
78818;SDS011;68166;55.090;37.460;2024-03-02T05:21:42;11.07;;;4.03;;
78818;SDS011;68166;55.090;37.460;2024-03-02T05:26:44;12.43;;;3.88;;
78818;SDS011;68166;55.090;37.460;2024-03-02T05:31:46;6.68;;;3.75;;
78818;SDS011;68166;55.090;37.460;2024-03-02T05:41:53;9.70;;;5.05;;
78818;SDS011;68166;55.090;37.460;2024-03-02T05:46:55;9.15;;;5.95;;
78818;SDS011;68166;55.090;37.460;2024-03-02T05:51:59;6.80;;;4.57;;
78818;SDS011;68166;55.090;37.460;2024-03-02T05:57:01;5.38;;;4.50;;
78818;SDS011;68166;55.090;37.460;2024-03-02T06:02:17;4.47;;;3.60;;
78818;SDS011;68166;55.090;37.460;2024-03-02T06:07:19;7.60;;;3.95;;
78818;SDS011;68166;55.090;37.460;2024-03-02T06:12:21;6.10;;;4.20;;
78818;SDS011;68166;55.090;37.460;2024-03-02T06:17:23;7.63;;;5.88;;
78818;SDS011;68166;55.090;37.460;2024-03-02T06:22:25;6.78;;;4.18;;
78818;SDS011;68166;55.090;37.460;2024-03-02T06:27:27;9.88;;;5.53;;
78818;SDS011;68166;55.090;37.460;2024-03-02T06:32:29;7.68;;;5.15;;
78818;SDS011;68166;55.090;37.460;2024-03-02T06:42:34;4.57;;;3.25;;
78818;SDS011;68166;55.090;37.460;2024-03-02T06:47:38;5.93;;;3.97;;
78818;SDS011;68166;55.090;37.460;2024-03-02T06:52:40;5.85;;;3.60;;
78818;SDS011;68166;55.090;37.460;2024-03-02T06:57:43;7.30;;;4.97;;
78818;SDS011;68166;55.090;37.460;2024-03-02T07:02:47;12.18;;;6.00;;
78818;SDS011;68166;55.090;37.460;2024-03-02T07:07:49;2.17;;;1.85;;
78818;SDS011;68166;55.090;37.460;2024-03-02T07:12:51;9.63;;;6.53;;
78818;SDS011;68166;55.090;37.460;2024-03-02T07:17:53;6.53;;;4.63;;
78818;SDS011;68166;55.090;37.460;2024-03-02T07:22:55;11.15;;;6.40;;
78818;SDS011;68166;55.090;37.460;2024-03-02T07:27:57;3.30;;;2.47;;
78818;SDS011;68166;55.090;37.460;2024-03-02T07:32:59;18.38;;;5.68;;
78818;SDS011;68166;55.090;37.460;2024-03-02T07:38:01;12.38;;;8.05;;
78818;SDS011;68166;55.090;37.460;2024-03-02T07:43:03;10.65;;;6.85;;
78818;SDS011;68166;55.090;37.460;2024-03-02T07:48:05;23.35;;;10.32;;
78818;SDS011;68166;55.090;37.460;2024-03-02T07:53:07;15.73;;;9.25;;
78818;SDS011;68166;55.090;37.460;2024-03-02T08:03:12;17.70;;;7.57;;
78818;SDS011;68166;55.090;37.460;2024-03-02T08:08:14;15.43;;;8.70;;
78818;SDS011;68166;55.090;37.460;2024-03-02T08:13:16;5.68;;;3.28;;
78818;SDS011;68166;55.090;37.460;2024-03-02T08:18:18;16.63;;;6.53;;
78818;SDS011;68166;55.090;37.460;2024-03-02T08:23:20;11.10;;;7.15;;
78818;SDS011;68166;55.090;37.460;2024-03-02T08:33:24;10.65;;;4.75;;
78818;SDS011;68166;55.090;37.460;2024-03-02T08:38:26;8.13;;;5.50;;
78818;SDS011;68166;55.090;37.460;2024-03-02T08:48:29;6.07;;;5.45;;
78818;SDS011;68166;55.090;37.460;2024-03-02T08:53:31;15.40;;;5.78;;
78818;SDS011;68166;55.090;37.460;2024-03-02T08:58:34;13.35;;;9.23;;
78818;SDS011;68166;55.090;37.460;2024-03-02T09:03:36;16.92;;;8.52;;
78818;SDS011;68166;55.090;37.460;2024-03-02T09:08:38;23.65;;;9.90;;
78818;SDS011;68166;55.090;37.460;2024-03-02T09:13:40;16.73;;;10.40;;
78818;SDS011;68166;55.090;37.460;2024-03-02T09:18:43;11.40;;;6.85;;
78818;SDS011;68166;55.090;37.460;2024-03-02T09:23:45;18.40;;;8.75;;
78818;SDS011;68166;55.090;37.460;2024-03-02T09:28:49;13.38;;;7.32;;
78818;SDS011;68166;55.090;37.460;2024-03-02T09:33:54;17.33;;;8.02;;
78818;SDS011;68166;55.090;37.460;2024-03-02T09:38:56;19.45;;;6.93;;
78818;SDS011;68166;55.090;37.460;2024-03-02T09:49:00;19.25;;;9.13;;
78818;SDS011;68166;55.090;37.460;2024-03-02T09:59:03;11.73;;;5.90;;
78818;SDS011;68166;55.090;37.460;2024-03-02T10:04:06;9.18;;;4.68;;
78818;SDS011;68166;55.090;37.460;2024-03-02T10:14:12;9.80;;;5.57;;
78818;SDS011;68166;55.090;37.460;2024-03-02T10:19:18;18.02;;;7.07;;
78818;SDS011;68166;55.090;37.460;2024-03-02T10:24:21;12.52;;;5.38;;
78818;SDS011;68166;55.090;37.460;2024-03-02T10:29:24;12.05;;;7.18;;
78818;SDS011;68166;55.090;37.460;2024-03-02T10:34:29;10.07;;;7.07;;
78818;SDS011;68166;55.090;37.460;2024-03-02T10:39:32;6.95;;;4.28;;
78818;SDS011;68166;55.090;37.460;2024-03-02T10:44:36;10.60;;;7.15;;
78818;SDS011;68166;55.090;37.460;2024-03-02T10:49:38;9.43;;;4.57;;
78818;SDS011;68166;55.090;37.460;2024-03-02T10:54:44;12.93;;;5.95;;
78818;SDS011;68166;55.090;37.460;2024-03-02T10:59:51;16.50;;;6.50;;
78818;SDS011;68166;55.090;37.460;2024-03-02T11:04:54;12.95;;;7.90;;
78818;SDS011;68166;55.090;37.460;2024-03-02T11:10:00;8.82;;;5.72;;
78818;SDS011;68166;55.090;37.460;2024-03-02T11:15:14;14.73;;;6.18;;
78818;SDS011;68166;55.090;37.460;2024-03-02T11:20:20;9.32;;;4.43;;
78818;SDS011;68166;55.090;37.460;2024-03-02T11:25:23;8.70;;;3.65;;
78818;SDS011;68166;55.090;37.460;2024-03-02T11:35:40;7.22;;;4.50;;
78818;SDS011;68166;55.090;37.460;2024-03-02T11:40:52;10.13;;;4.15;;
78818;SDS011;68166;55.090;37.460;2024-03-02T11:45:58;10.85;;;6.25;;
78818;SDS011;68166;55.090;37.460;2024-03-02T11:51:00;10.23;;;3.78;;
78818;SDS011;68166;55.090;37.460;2024-03-02T11:56:03;9.88;;;5.07;;
78818;SDS011;68166;55.090;37.460;2024-03-02T12:01:06;10.02;;;5.05;;
78818;SDS011;68166;55.090;37.460;2024-03-02T12:06:08;12.45;;;5.03;;
78818;SDS011;68166;55.090;37.460;2024-03-02T12:11:12;13.00;;;5.53;;
78818;SDS011;68166;55.090;37.460;2024-03-02T12:16:22;6.95;;;3.85;;
78818;SDS011;68166;55.090;37.460;2024-03-02T12:21:25;9.48;;;4.35;;
78818;SDS011;68166;55.090;37.460;2024-03-02T12:26:27;8.60;;;4.28;;
78818;SDS011;68166;55.090;37.460;2024-03-02T12:31:29;8.95;;;4.65;;
78818;SDS011;68166;55.090;37.460;2024-03-02T12:36:36;9.18;;;4.45;;
78818;SDS011;68166;55.090;37.460;2024-03-02T12:41:40;6.00;;;4.35;;
78818;SDS011;68166;55.090;37.460;2024-03-02T12:46:43;11.40;;;4.72;;
78818;SDS011;68166;55.090;37.460;2024-03-02T12:51:46;5.88;;;3.13;;
78818;SDS011;68166;55.090;37.460;2024-03-02T12:56:52;10.73;;;5.03;;
78818;SDS011;68166;55.090;37.460;2024-03-02T13:01:55;14.88;;;6.32;;
78818;SDS011;68166;55.090;37.460;2024-03-02T13:06:58;7.35;;;3.33;;
78818;SDS011;68166;55.090;37.460;2024-03-02T13:12:01;15.32;;;5.60;;
78818;SDS011;68166;55.090;37.460;2024-03-02T13:17:05;13.20;;;4.68;;
78818;SDS011;68166;55.090;37.460;2024-03-02T13:22:07;12.38;;;5.35;;
78818;SDS011;68166;55.090;37.460;2024-03-02T13:27:09;12.60;;;5.50;;
78818;SDS011;68166;55.090;37.460;2024-03-02T13:32:11;7.50;;;4.05;;
78818;SDS011;68166;55.090;37.460;2024-03-02T13:37:13;11.05;;;3.92;;
78818;SDS011;68166;55.090;37.460;2024-03-02T13:42:15;12.43;;;4.93;;
78818;SDS011;68166;55.090;37.460;2024-03-02T13:47:17;12.20;;;5.28;;
78818;SDS011;68166;55.090;37.460;2024-03-02T13:52:19;7.15;;;3.95;;
78818;SDS011;68166;55.090;37.460;2024-03-02T13:57:21;8.70;;;3.90;;
78818;SDS011;68166;55.090;37.460;2024-03-02T14:02:25;22.10;;;8.10;;
78818;SDS011;68166;55.090;37.460;2024-03-02T14:07:27;8.55;;;4.40;;
78818;SDS011;68166;55.090;37.460;2024-03-02T14:12:30;4.72;;;3.45;;
78818;SDS011;68166;55.090;37.460;2024-03-02T14:17:32;13.25;;;3.92;;
78818;SDS011;68166;55.090;37.460;2024-03-02T14:22:34;5.03;;;2.47;;
78818;SDS011;68166;55.090;37.460;2024-03-02T14:27:38;6.05;;;2.42;;
78818;SDS011;68166;55.090;37.460;2024-03-02T14:37:42;7.10;;;2.42;;
78818;SDS011;68166;55.090;37.460;2024-03-02T14:42:44;4.97;;;2.83;;
78818;SDS011;68166;55.090;37.460;2024-03-02T14:47:49;1.80;;;1.08;;
78818;SDS011;68166;55.090;37.460;2024-03-02T14:52:51;0.70;;;0.50;;
78818;SDS011;68166;55.090;37.460;2024-03-02T15:02:55;5.95;;;1.75;;
78818;SDS011;68166;55.090;37.460;2024-03-02T15:07:57;3.15;;;1.63;;
78818;SDS011;68166;55.090;37.460;2024-03-02T15:13:00;7.55;;;4.05;;
78818;SDS011;68166;55.090;37.460;2024-03-02T15:18:04;12.90;;;5.38;;
78818;SDS011;68166;55.090;37.460;2024-03-02T15:28:08;11.55;;;8.82;;
78818;SDS011;68166;55.090;37.460;2024-03-02T15:33:10;5.40;;;3.22;;
78818;SDS011;68166;55.090;37.460;2024-03-02T15:38:12;6.05;;;3.28;;
78818;SDS011;68166;55.090;37.460;2024-03-02T15:43:16;10.38;;;2.10;;
78818;SDS011;68166;55.090;37.460;2024-03-02T15:48:18;2.65;;;2.05;;
78818;SDS011;68166;55.090;37.460;2024-03-02T15:53:20;3.35;;;2.83;;
78818;SDS011;68166;55.090;37.460;2024-03-02T15:58:21;1.70;;;1.60;;
78818;SDS011;68166;55.090;37.460;2024-03-02T16:03:23;4.63;;;1.20;;
78818;SDS011;68166;55.090;37.460;2024-03-02T16:08:28;3.47;;;2.58;;
78818;SDS011;68166;55.090;37.460;2024-03-02T16:13:30;2.90;;;2.20;;
78818;SDS011;68166;55.090;37.460;2024-03-02T16:18:33;1.58;;;1.23;;
78818;SDS011;68166;55.090;37.460;2024-03-02T16:23:35;4.40;;;1.67;;
78818;SDS011;68166;55.090;37.460;2024-03-02T16:28:37;8.75;;;3.25;;
78818;SDS011;68166;55.090;37.460;2024-03-02T16:33:39;7.38;;;2.13;;
78818;SDS011;68166;55.090;37.460;2024-03-02T16:38:41;5.50;;;2.05;;
78818;SDS011;68166;55.090;37.460;2024-03-02T16:43:47;3.70;;;1.35;;
78818;SDS011;68166;55.090;37.460;2024-03-02T16:48:49;6.35;;;2.58;;
78818;SDS011;68166;55.090;37.460;2024-03-02T16:53:51;4.22;;;1.77;;
78818;SDS011;68166;55.090;37.460;2024-03-02T16:58:53;5.25;;;1.65;;
78818;SDS011;68166;55.090;37.460;2024-03-02T17:03:55;8.55;;;3.05;;
78818;SDS011;68166;55.090;37.460;2024-03-02T17:08:57;3.95;;;2.00;;
78818;SDS011;68166;55.090;37.460;2024-03-02T17:13:59;2.95;;;2.05;;
78818;SDS011;68166;55.090;37.460;2024-03-02T17:19:01;1.42;;;0.82;;
78818;SDS011;68166;55.090;37.460;2024-03-02T17:24:03;2.05;;;1.45;;
78818;SDS011;68166;55.090;37.460;2024-03-02T17:34:07;1.65;;;1.05;;
78818;SDS011;68166;55.090;37.460;2024-03-02T17:39:09;1.98;;;1.25;;
78818;SDS011;68166;55.090;37.460;2024-03-02T17:44:11;3.45;;;2.50;;
78818;SDS011;68166;55.090;37.460;2024-03-02T17:49:13;7.82;;;3.33;;
78818;SDS011;68166;55.090;37.460;2024-03-02T17:54:15;2.22;;;1.17;;
78818;SDS011;68166;55.090;37.460;2024-03-02T17:59:17;3.40;;;2.20;;
78818;SDS011;68166;55.090;37.460;2024-03-02T18:04:19;3.40;;;1.60;;
78818;SDS011;68166;55.090;37.460;2024-03-02T18:09:23;2.53;;;1.88;;
78818;SDS011;68166;55.090;37.460;2024-03-02T18:14:25;3.38;;;1.92;;
78818;SDS011;68166;55.090;37.460;2024-03-02T18:19:27;5.95;;;2.40;;
78818;SDS011;68166;55.090;37.460;2024-03-02T18:24:30;6.95;;;1.90;;
78818;SDS011;68166;55.090;37.460;2024-03-02T18:29:32;6.97;;;1.70;;
78818;SDS011;68166;55.090;37.460;2024-03-02T18:34:34;8.13;;;1.77;;
78818;SDS011;68166;55.090;37.460;2024-03-02T18:39:38;1.33;;;1.23;;
78818;SDS011;68166;55.090;37.460;2024-03-02T18:44:40;2.08;;;1.95;;
78818;SDS011;68166;55.090;37.460;2024-03-02T18:49:42;2.78;;;1.67;;
78818;SDS011;68166;55.090;37.460;2024-03-02T18:54:45;1.10;;;0.55;;
78818;SDS011;68166;55.090;37.460;2024-03-02T18:59:47;4.00;;;2.17;;
78818;SDS011;68166;55.090;37.460;2024-03-02T19:04:49;3.45;;;1.52;;
78818;SDS011;68166;55.090;37.460;2024-03-02T19:09:52;3.05;;;1.35;;
78818;SDS011;68166;55.090;37.460;2024-03-02T19:14:56;2.13;;;1.83;;
78818;SDS011;68166;55.090;37.460;2024-03-02T19:19:58;2.70;;;1.40;;
78818;SDS011;68166;55.090;37.460;2024-03-02T19:25:00;8.23;;;2.70;;
78818;SDS011;68166;55.090;37.460;2024-03-02T19:30:02;7.75;;;1.77;;
78818;SDS011;68166;55.090;37.460;2024-03-02T19:35:10;20.90;;;1.95;;
78818;SDS011;68166;55.090;37.460;2024-03-02T19:40:14;0.88;;;0.85;;
78818;SDS011;68166;55.090;37.460;2024-03-02T19:45:16;5.30;;;1.52;;
78818;SDS011;68166;55.090;37.460;2024-03-02T19:50:18;2.42;;;1.67;;
78818;SDS011;68166;55.090;37.460;2024-03-02T19:55:20;0.73;;;0.73;;
78818;SDS011;68166;55.090;37.460;2024-03-02T20:00:32;3.40;;;1.95;;
78818;SDS011;68166;55.090;37.460;2024-03-02T20:05:34;2.05;;;0.90;;
78818;SDS011;68166;55.090;37.460;2024-03-02T20:10:36;1.23;;;0.90;;
78818;SDS011;68166;55.090;37.460;2024-03-02T20:15:38;1.17;;;0.88;;
78818;SDS011;68166;55.090;37.460;2024-03-02T20:25:43;1.42;;;1.33;;
78818;SDS011;68166;55.090;37.460;2024-03-02T20:30:45;3.15;;;2.22;;
78818;SDS011;68166;55.090;37.460;2024-03-02T20:35:47;3.95;;;2.85;;
78818;SDS011;68166;55.090;37.460;2024-03-02T20:40:49;0.82;;;0.73;;
78818;SDS011;68166;55.090;37.460;2024-03-02T20:45:52;4.03;;;2.15;;
78818;SDS011;68166;55.090;37.460;2024-03-02T20:50:54;5.30;;;2.53;;
78818;SDS011;68166;55.090;37.460;2024-03-02T20:55:56;1.85;;;1.65;;
78818;SDS011;68166;55.090;37.460;2024-03-02T21:00:58;3.47;;;2.53;;
78818;SDS011;68166;55.090;37.460;2024-03-02T21:06:00;5.13;;;2.42;;
78818;SDS011;68166;55.090;37.460;2024-03-02T21:11:02;3.20;;;1.92;;
78818;SDS011;68166;55.090;37.460;2024-03-02T21:16:04;19.30;;;1.25;;
78818;SDS011;68166;55.090;37.460;2024-03-02T21:21:10;4.72;;;3.67;;
78818;SDS011;68166;55.090;37.460;2024-03-02T21:26:12;6.55;;;2.83;;
78818;SDS011;68166;55.090;37.460;2024-03-02T21:31:14;2.13;;;1.92;;
78818;SDS011;68166;55.090;37.460;2024-03-02T21:36:17;1.90;;;1.75;;
78818;SDS011;68166;55.090;37.460;2024-03-02T21:41:19;6.07;;;3.80;;
78818;SDS011;68166;55.090;37.460;2024-03-02T21:46:21;2.17;;;1.38;;
78818;SDS011;68166;55.090;37.460;2024-03-02T21:51:23;3.17;;;2.58;;
78818;SDS011;68166;55.090;37.460;2024-03-02T21:56:25;10.82;;;2.60;;
78818;SDS011;68166;55.090;37.460;2024-03-02T22:01:27;4.10;;;1.95;;
78818;SDS011;68166;55.090;37.460;2024-03-02T22:06:29;1.77;;;0.73;;
78818;SDS011;68166;55.090;37.460;2024-03-02T22:11:31;5.22;;;1.75;;
78818;SDS011;68166;55.090;37.460;2024-03-02T22:16:33;4.35;;;2.65;;
78818;SDS011;68166;55.090;37.460;2024-03-02T22:21:35;2.97;;;2.42;;
78818;SDS011;68166;55.090;37.460;2024-03-02T22:26:37;2.08;;;1.50;;
78818;SDS011;68166;55.090;37.460;2024-03-02T22:31:39;2.17;;;1.80;;
78818;SDS011;68166;55.090;37.460;2024-03-02T22:36:41;7.97;;;1.35;;
78818;SDS011;68166;55.090;37.460;2024-03-02T22:41:43;8.00;;;3.10;;
78818;SDS011;68166;55.090;37.460;2024-03-02T22:46:45;1.77;;;1.65;;
78818;SDS011;68166;55.090;37.460;2024-03-02T22:51:47;2.83;;;2.13;;
78818;SDS011;68166;55.090;37.460;2024-03-02T22:56:49;2.13;;;1.92;;
78818;SDS011;68166;55.090;37.460;2024-03-02T23:01:51;4.70;;;1.75;;
78818;SDS011;68166;55.090;37.460;2024-03-02T23:06:53;8.43;;;3.25;;
78818;SDS011;68166;55.090;37.460;2024-03-02T23:11:55;2.00;;;0.88;;
78818;SDS011;68166;55.090;37.460;2024-03-02T23:16:56;2.75;;;2.00;;
78818;SDS011;68166;55.090;37.460;2024-03-02T23:21:58;6.35;;;3.88;;
78818;SDS011;68166;55.090;37.460;2024-03-02T23:27:00;7.10;;;3.05;;
78818;SDS011;68166;55.090;37.460;2024-03-02T23:32:02;2.80;;;2.55;;
78818;SDS011;68166;55.090;37.460;2024-03-02T23:37:05;2.47;;;1.70;;
78818;SDS011;68166;55.090;37.460;2024-03-02T23:42:08;1.00;;;0.73;;
78818;SDS011;68166;55.090;37.460;2024-03-02T23:47:10;3.33;;;2.92;;
78818;SDS011;68166;55.090;37.460;2024-03-02T23:52:12;1.92;;;0.60;;
78818;SDS011;68166;55.090;37.460;2024-03-02T23:57:14;2.60;;;1.45;;
